createdAt,value
2024-01-16T00:01:47.317Z,31.06
2024-01-16T00:04:13.788Z,31.12
2024-01-16T00:06:45.055Z,30.93
2024-01-16T00:09:13.064Z,31.11
2024-01-16T00:11:42.709Z,31.15
2024-01-16T00:14:09.149Z,31.01
2024-01-16T00:16:42.244Z,31.30
2024-01-16T00:19:10.128Z,31.21
2024-01-16T00:21:43.201Z,30.88
2024-01-16T00:24:09.581Z,31.21
2024-01-16T00:26:36.714Z,31.21
2024-01-16T00:29:03.161Z,31.10
2024-01-16T00:31:29.546Z,31.20
2024-01-16T00:33:55.988Z,31.13
2024-01-16T00:36:22.402Z,31.10
2024-01-16T00:38:48.934Z,31.03
2024-01-16T00:41:18.351Z,31.03
2024-01-16T00:43:44.792Z,31.24
2024-01-16T00:46:11.168Z,31.23
2024-01-16T00:48:37.702Z,31.22
2024-01-16T00:51:04.267Z,31.13
2024-01-16T00:53:30.828Z,31.06
2024-01-16T00:55:57.251Z,31.16
2024-01-16T00:58:23.758Z,31.15
2024-01-16T01:00:50.231Z,31.01
2024-01-16T01:03:16.671Z,31.10
2024-01-16T01:05:43.282Z,30.98
2024-01-16T01:08:10.200Z,30.98
2024-01-16T01:10:36.673Z,31.00
2024-01-16T01:13:03.050Z,31.05
2024-01-16T01:15:29.453Z,31.04
2024-01-16T01:17:56.067Z,30.79
2024-01-16T01:20:22.867Z,31.02
2024-01-16T01:22:49.340Z,30.98
2024-01-16T01:25:15.713Z,30.97
2024-01-16T01:27:42.093Z,31.08
2024-01-16T01:30:10.800Z,31.04
2024-01-16T01:32:37.505Z,31.24
2024-01-16T01:35:04.434Z,30.90
2024-01-16T01:37:30.825Z,31.24
2024-01-16T01:39:57.196Z,31.08
2024-01-16T01:42:23.696Z,30.98
2024-01-16T01:44:50.117Z,30.88
2024-01-16T01:47:16.547Z,31.17
2024-01-16T01:49:42.964Z,31.00
2024-01-16T01:52:09.318Z,30.95
2024-01-16T01:54:36.446Z,30.79
2024-01-16T01:57:02.943Z,30.85
2024-01-16T01:59:29.393Z,30.98
2024-01-16T02:01:55.813Z,30.89
2024-01-16T02:04:22.704Z,30.94
2024-01-16T02:06:49.285Z,30.89
2024-01-16T02:09:15.687Z,30.96
2024-01-16T02:11:42.449Z,30.98
2024-01-16T02:14:08.908Z,30.82
2024-01-16T02:16:39.461Z,30.86
2024-01-16T02:19:05.958Z,31.03
2024-01-16T02:21:40.945Z,31.21
2024-01-16T02:24:07.298Z,31.18
2024-01-16T02:26:33.845Z,31.01
2024-01-16T02:29:01.908Z,30.99
2024-01-16T02:31:28.284Z,31.07
2024-01-16T02:33:54.735Z,31.06
2024-01-16T02:36:21.154Z,30.97
2024-01-16T02:38:47.689Z,31.03
2024-01-16T02:41:17.252Z,31.00
2024-01-16T02:43:43.836Z,31.15
2024-01-16T02:46:10.302Z,31.27
2024-01-16T02:48:37.040Z,31.07
2024-01-16T02:51:04.496Z,30.97
2024-01-16T02:53:31.312Z,31.10
2024-01-16T02:56:00.639Z,30.92
2024-01-16T02:58:27.659Z,31.12
2024-01-16T03:00:54.041Z,31.01
2024-01-16T03:03:20.481Z,30.97
2024-01-16T03:05:47.342Z,31.12
2024-01-16T03:08:13.839Z,31.05
2024-01-16T03:10:40.227Z,31.09
2024-01-16T03:13:06.665Z,31.33
2024-01-16T03:15:33.111Z,31.00
2024-01-16T03:18:00.053Z,30.97
2024-01-16T03:20:26.712Z,31.13
2024-01-16T03:22:53.353Z,31.05
2024-01-16T03:25:19.700Z,31.12
2024-01-16T03:27:46.075Z,31.23
2024-01-16T03:30:12.607Z,31.27
2024-01-16T03:32:39.291Z,31.42
2024-01-16T03:35:05.996Z,31.21
2024-01-16T03:37:32.455Z,31.12
2024-01-16T03:39:58.810Z,31.22
2024-01-16T03:42:25.198Z,31.21
2024-01-16T03:44:52.408Z,31.17
2024-01-16T03:47:18.887Z,31.29
2024-01-16T03:49:45.340Z,31.23
2024-01-16T03:52:11.945Z,31.26
2024-01-16T03:54:38.359Z,31.25
2024-01-16T03:57:04.759Z,31.23
2024-01-16T03:59:31.185Z,31.13
2024-01-16T04:01:57.598Z,31.13
2024-01-16T04:04:24.199Z,31.20
2024-01-16T04:06:50.605Z,31.24
2024-01-16T04:09:17.104Z,31.23
2024-01-16T04:11:43.609Z,31.30
2024-01-16T04:14:10.078Z,31.25
2024-01-16T04:16:36.452Z,31.17
2024-01-16T04:19:03.089Z,31.24
2024-01-16T04:21:29.608Z,31.30
2024-01-16T04:23:56.082Z,31.19
2024-01-16T04:26:22.721Z,31.28
2024-01-16T04:28:49.165Z,31.24
2024-01-16T04:31:17.958Z,31.25
2024-01-16T04:33:44.424Z,31.29
2024-01-16T04:36:11.029Z,31.21
2024-01-16T04:38:37.683Z,31.13
2024-01-16T04:41:04.168Z,31.38
2024-01-16T04:43:30.672Z,31.32
2024-01-16T04:45:57.461Z,31.25
2024-01-16T04:48:24.618Z,31.22
2024-01-16T04:50:51.141Z,31.06
2024-01-16T04:53:17.571Z,31.14
2024-01-16T04:55:43.971Z,31.00
2024-01-16T04:58:10.950Z,31.16
2024-01-16T05:00:37.714Z,31.12
2024-01-16T05:03:05.128Z,31.13
2024-01-16T05:05:31.844Z,31.09
2024-01-16T05:07:58.392Z,31.20
2024-01-16T05:10:24.784Z,31.02
2024-01-16T05:12:51.151Z,31.04
2024-01-16T05:15:17.815Z,31.11
2024-01-16T05:17:44.283Z,31.17
2024-01-16T05:20:11.630Z,31.02
2024-01-16T05:22:40.047Z,31.06
2024-01-16T05:25:08.279Z,30.76
2024-01-16T05:27:35.041Z,31.03
2024-01-16T05:30:02.091Z,31.07
2024-01-16T05:32:28.967Z,30.92
2024-01-16T05:34:55.544Z,31.07
2024-01-16T05:37:21.923Z,30.86
2024-01-16T05:39:48.306Z,30.86
2024-01-16T05:42:14.690Z,30.88
2024-01-16T05:44:41.298Z,30.98
2024-01-16T05:47:07.755Z,30.67
2024-01-16T05:49:34.600Z,31.01
2024-01-16T05:52:01.254Z,30.81
2024-01-16T05:54:28.131Z,30.85
2024-01-16T05:56:54.532Z,30.88
2024-01-16T05:59:21.018Z,30.63
2024-01-16T06:01:47.450Z,30.80
2024-01-16T06:04:14.906Z,30.69
2024-01-16T06:06:45.727Z,30.93
2024-01-16T06:09:14.934Z,30.70
2024-01-16T06:11:42.088Z,31.00
2024-01-16T06:14:08.855Z,30.83
2024-01-16T06:16:35.257Z,30.87
2024-01-16T06:19:01.686Z,30.64
2024-01-16T06:21:28.406Z,30.17
2024-01-16T06:23:54.858Z,29.91
2024-01-16T06:26:21.281Z,30.49
2024-01-16T06:28:47.695Z,30.59
2024-01-16T06:31:14.133Z,30.80
2024-01-16T06:33:40.614Z,30.66
2024-01-16T06:36:07.808Z,30.90
2024-01-16T06:38:34.242Z,30.94
2024-01-16T06:41:01.702Z,30.56
2024-01-16T06:43:28.693Z,29.80
2024-01-16T06:45:55.587Z,30.04
2024-01-16T06:48:22.098Z,30.12
2024-01-16T06:50:48.681Z,30.54
2024-01-16T06:53:17.231Z,30.75
2024-01-16T06:55:43.909Z,30.81
2024-01-16T06:58:11.294Z,30.83
2024-01-16T07:00:37.869Z,30.74
2024-01-16T07:03:04.419Z,30.88
2024-01-16T07:05:30.879Z,30.60
2024-01-16T07:07:57.648Z,30.52
2024-01-16T07:10:25.247Z,30.84
2024-01-16T07:12:52.627Z,30.86
2024-01-16T07:15:19.444Z,30.63
2024-01-16T07:17:45.910Z,30.59
2024-01-16T07:20:12.539Z,30.65
2024-01-16T07:22:40.608Z,30.16
2024-01-16T07:25:07.571Z,30.17
2024-01-16T07:27:33.930Z,30.33
2024-01-16T07:30:00.387Z,30.36
2024-01-16T07:32:27.552Z,30.31
2024-01-16T07:34:54.829Z,30.31
2024-01-16T07:37:21.193Z,30.18
2024-01-16T07:39:47.629Z,30.35
2024-01-16T07:42:13.992Z,30.34
2024-01-16T07:44:40.385Z,30.25
2024-01-16T07:47:06.815Z,30.32
2024-01-16T07:49:33.287Z,30.01
2024-01-16T07:51:59.700Z,30.28
2024-01-16T07:54:27.012Z,30.20
2024-01-16T07:56:53.400Z,30.31
2024-01-16T07:59:19.830Z,30.14
2024-01-16T08:01:46.951Z,30.12
2024-01-16T08:04:13.454Z,30.31
2024-01-16T08:06:40.042Z,30.28
2024-01-16T08:09:07.280Z,30.30
2024-01-16T08:11:35.816Z,30.31
2024-01-16T08:14:02.464Z,30.43
2024-01-16T08:16:28.868Z,30.29
2024-01-16T08:18:55.268Z,30.51
2024-01-16T08:21:21.682Z,30.14
2024-01-16T08:23:48.259Z,30.24
2024-01-16T08:26:14.693Z,30.24
2024-01-16T08:28:41.148Z,30.13
2024-01-16T08:31:07.535Z,30.19
2024-01-16T08:33:40.090Z,30.37
2024-01-16T08:36:12.164Z,30.21
2024-01-16T08:38:38.625Z,30.10
2024-01-16T08:41:07.519Z,30.18
2024-01-16T08:43:34.473Z,30.28
2024-01-16T08:46:01.141Z,30.05
2024-01-16T08:48:27.749Z,30.24
2024-01-16T08:50:55.589Z,30.13
2024-01-16T08:53:25.115Z,30.00
2024-01-16T08:55:51.564Z,29.95
2024-01-16T08:58:18.060Z,30.09
2024-01-16T09:00:44.540Z,29.93
2024-01-16T09:03:11.010Z,30.11
2024-01-16T09:05:40.336Z,29.86
2024-01-16T09:08:08.087Z,29.98
2024-01-16T09:10:36.066Z,30.11
2024-01-16T09:13:02.534Z,30.01
2024-01-16T09:15:28.956Z,30.05
2024-01-16T09:17:55.529Z,30.19
2024-01-16T09:20:22.006Z,30.32
2024-01-16T09:22:48.394Z,30.29
2024-01-16T09:25:14.873Z,30.29
2024-01-16T09:27:41.278Z,29.92
2024-01-16T09:30:08.502Z,30.25
2024-01-16T09:32:36.314Z,29.94
2024-01-16T09:35:05.573Z,30.23
2024-01-16T09:37:32.056Z,30.32
2024-01-16T09:39:58.455Z,30.39
2024-01-16T09:42:25.680Z,30.51
2024-01-16T09:44:52.187Z,30.63
2024-01-16T09:47:18.724Z,30.50
2024-01-16T09:49:45.192Z,30.37
2024-01-16T09:52:11.621Z,30.51
2024-01-16T09:54:38.271Z,30.33
2024-01-16T09:57:04.712Z,30.37
2024-01-16T09:59:31.349Z,30.54
2024-01-16T10:01:59.278Z,30.63
2024-01-16T10:04:25.719Z,30.51
2024-01-16T10:06:52.221Z,30.69
2024-01-16T10:09:18.625Z,30.70
2024-01-16T10:11:45.047Z,30.72
2024-01-16T10:14:12.204Z,30.65
2024-01-16T10:17:00.954Z,30.93
2024-01-16T10:19:39.043Z,30.94
2024-01-16T10:22:12.355Z,30.89
2024-01-16T10:24:38.765Z,30.87
2024-01-16T10:27:05.389Z,30.90
2024-01-16T10:29:43.175Z,31.01
2024-01-16T10:32:14.154Z,31.00
2024-01-16T10:34:40.772Z,30.84
2024-01-16T10:37:07.207Z,30.97
2024-01-16T10:39:41.115Z,31.30
2024-01-16T10:42:10.227Z,31.06
2024-01-16T10:44:39.179Z,31.22
2024-01-16T10:47:14.757Z,31.38
2024-01-16T10:49:46.115Z,31.39
2024-01-16T10:52:13.581Z,31.24
2024-01-16T10:54:41.830Z,31.25
2024-01-16T10:57:08.597Z,31.27
2024-01-16T10:59:41.038Z,31.20
2024-01-16T11:02:07.462Z,31.32
2024-01-16T11:04:34.024Z,31.37
2024-01-16T11:07:00.424Z,31.43
2024-01-16T11:09:26.877Z,31.36
2024-01-16T11:11:54.417Z,31.32
2024-01-16T11:14:23.548Z,31.40
2024-01-16T11:16:50.645Z,31.40
2024-01-16T11:19:31.441Z,31.49
2024-01-16T11:22:06.041Z,31.45
2024-01-16T11:24:32.534Z,31.49
2024-01-16T11:26:58.957Z,31.41
2024-01-16T11:29:28.642Z,31.25
2024-01-16T11:32:08.710Z,31.25
2024-01-16T11:34:42.106Z,31.37
2024-01-16T11:37:08.777Z,31.21
2024-01-16T11:39:35.242Z,31.33
2024-01-16T11:42:04.769Z,31.19
2024-01-16T11:44:55.177Z,31.15
2024-01-16T11:47:22.150Z,31.45
2024-01-16T11:49:48.908Z,31.13
2024-01-16T11:52:15.399Z,31.54
2024-01-16T11:54:42.721Z,31.19
2024-01-16T11:57:18.423Z,31.14
2024-01-16T11:59:58.651Z,31.00
2024-01-16T12:02:28.025Z,30.83
2024-01-16T12:04:57.837Z,30.81
2024-01-16T12:07:24.554Z,30.93
2024-01-16T12:09:51.002Z,31.09
2024-01-16T12:12:19.454Z,30.84
2024-01-16T12:14:52.688Z,30.74
2024-01-16T12:17:21.344Z,30.54
2024-01-16T12:19:48.026Z,30.52
2024-01-16T12:22:14.544Z,30.23
2024-01-16T12:24:41.034Z,30.28
2024-01-16T12:27:09.929Z,29.91
2024-01-16T12:29:36.976Z,29.78
2024-01-16T12:32:07.687Z,29.67
2024-01-16T12:34:36.247Z,29.63
2024-01-16T12:37:06.823Z,29.58
2024-01-16T12:39:33.566Z,29.49
2024-01-16T12:42:00.561Z,29.68
2024-01-16T12:44:30.045Z,29.49
2024-01-16T12:46:57.152Z,29.56
2024-01-16T12:49:24.039Z,29.32
2024-01-16T12:51:50.890Z,29.28
2024-01-16T12:54:18.660Z,29.48
2024-01-16T12:56:45.559Z,29.74
2024-01-16T12:59:15.132Z,29.74
2024-01-16T13:01:43.119Z,30.16
2024-01-16T13:04:09.693Z,29.96
2024-01-16T13:06:36.298Z,30.13
2024-01-16T13:09:11.914Z,30.09
2024-01-16T13:11:57.025Z,30.65
2024-01-16T13:14:24.196Z,30.49
2024-01-16T13:16:50.959Z,30.62
2024-01-16T13:19:18.006Z,30.50
2024-01-16T13:21:44.414Z,30.35
2024-01-16T13:24:10.769Z,30.42
2024-01-16T13:26:38.129Z,30.29
2024-01-16T13:29:04.908Z,30.37
2024-01-16T13:31:31.421Z,30.30
2024-01-16T13:33:58.075Z,30.62
2024-01-16T13:36:46.230Z,30.76
2024-01-16T13:39:14.099Z,30.69
2024-01-16T13:41:41.060Z,30.73
2024-01-16T13:44:07.502Z,30.73
2024-01-16T13:46:49.228Z,31.04
2024-01-16T13:49:21.036Z,30.81
2024-01-16T13:51:47.597Z,30.79
2024-01-16T13:54:13.968Z,30.82
2024-01-16T13:56:57.332Z,30.60
2024-01-16T13:59:26.707Z,30.66
2024-01-16T14:01:53.126Z,30.63
2024-01-16T14:04:19.517Z,30.57
2024-01-16T14:07:02.267Z,30.66
2024-01-16T14:09:36.384Z,30.73
2024-01-16T14:12:02.810Z,30.77
2024-01-16T14:14:29.491Z,30.61
2024-01-16T14:19:25.696Z,30.70
2024-01-16T14:21:52.129Z,30.58
2024-01-16T14:24:18.497Z,30.55
2024-01-16T14:26:48.064Z,30.39
2024-01-16T14:29:14.535Z,30.50
2024-01-16T14:31:44.050Z,30.65
2024-01-16T14:34:16.729Z,30.73
2024-01-16T14:36:43.154Z,30.53
2024-01-16T14:39:14.626Z,30.72
2024-01-16T14:41:42.484Z,30.53
2024-01-16T14:44:10.478Z,30.75
2024-01-16T14:46:37.239Z,30.50
2024-01-16T14:49:03.968Z,30.63
2024-01-16T14:51:30.762Z,30.67
2024-01-16T14:53:57.271Z,30.66
2024-01-16T14:56:23.761Z,30.79
2024-01-16T14:58:50.178Z,30.69
2024-01-16T15:01:17.917Z,30.52
2024-01-16T15:03:44.359Z,30.45
2024-01-16T15:06:13.819Z,30.80
2024-01-16T15:08:40.650Z,30.87
2024-01-16T15:11:08.061Z,30.77
2024-01-16T15:13:34.752Z,30.50
2024-01-16T15:16:01.666Z,30.39
2024-01-16T15:18:28.999Z,30.44
2024-01-16T15:20:56.445Z,30.36
2024-01-16T15:23:24.105Z,30.19
2024-01-16T15:25:50.702Z,30.30
2024-01-16T15:28:17.087Z,30.41
2024-01-16T15:30:44.105Z,30.52
2024-01-16T15:33:10.775Z,30.56
2024-01-16T15:35:37.315Z,30.42
2024-01-16T15:38:03.885Z,30.54
2024-01-16T15:40:31.347Z,30.68
2024-01-16T15:42:58.544Z,30.58
2024-01-16T15:45:27.458Z,30.58
2024-01-16T15:47:54.461Z,30.75
2024-01-16T15:50:20.918Z,30.54
2024-01-16T15:52:47.446Z,30.35
2024-01-16T15:55:13.822Z,30.58
2024-01-16T15:57:40.191Z,30.30
2024-01-16T16:00:10.382Z,30.12
2024-01-16T16:02:37.580Z,30.09
2024-01-16T16:05:04.364Z,30.21
2024-01-16T16:07:30.720Z,29.99
2024-01-16T16:09:57.098Z,30.13
2024-01-16T16:12:23.881Z,29.78
2024-01-16T16:14:50.432Z,29.88
2024-01-16T16:17:17.076Z,29.59
2024-01-16T16:19:43.570Z,29.43
2024-01-16T16:22:10.001Z,29.58
2024-01-16T16:24:36.521Z,29.56
2024-01-16T16:27:05.864Z,29.78
2024-01-16T16:29:32.353Z,29.33
2024-01-16T16:31:59.353Z,29.10
2024-01-16T16:34:25.857Z,29.28
2024-01-16T16:36:52.691Z,29.23
2024-01-16T16:39:19.112Z,29.05
2024-01-16T16:41:45.585Z,29.05
2024-01-16T16:44:11.965Z,28.58
2024-01-16T16:46:38.580Z,28.16
2024-01-16T16:49:05.245Z,27.59
2024-01-16T16:51:31.870Z,27.84
2024-01-16T16:53:58.342Z,28.29
2024-01-16T16:56:24.846Z,27.90
2024-01-16T16:58:51.627Z,28.07
2024-01-16T17:01:18.506Z,28.05
2024-01-16T17:03:46.433Z,27.97
2024-01-16T17:06:13.530Z,28.28
2024-01-16T17:08:40.524Z,28.53
2024-01-16T17:11:08.278Z,28.20
2024-01-16T17:13:34.813Z,28.85
2024-01-16T17:16:01.190Z,28.26
2024-01-16T17:18:29.169Z,28.48
2024-01-16T17:20:55.640Z,29.41
2024-01-16T17:23:22.128Z,28.81
2024-01-16T17:25:48.535Z,29.08
2024-01-16T17:28:15.703Z,28.83
2024-01-16T17:30:42.497Z,28.76
2024-01-16T17:33:09.267Z,28.67
2024-01-16T17:35:35.799Z,28.46
2024-01-16T17:38:02.424Z,28.73
2024-01-16T17:40:28.788Z,29.21
2024-01-16T17:42:55.163Z,29.03
2024-01-16T17:45:21.524Z,29.28
2024-01-16T17:47:48.099Z,29.36
2024-01-16T17:50:14.536Z,29.30
2024-01-16T17:52:40.890Z,28.99
2024-01-16T17:55:07.702Z,29.56
2024-01-16T17:57:34.325Z,29.43
2024-01-16T18:00:00.955Z,29.19
2024-01-16T18:02:28.241Z,29.32
2024-01-16T18:04:54.648Z,29.63
2024-01-16T18:07:21.219Z,29.50
2024-01-16T18:09:48.458Z,29.51
2024-01-16T18:12:14.969Z,29.49
2024-01-16T18:14:43.023Z,29.25
2024-01-16T18:17:12.171Z,29.14
2024-01-16T18:19:38.629Z,29.29
2024-01-16T18:22:06.948Z,29.43
2024-01-16T18:24:33.535Z,29.93
2024-01-16T18:27:02.995Z,29.75
2024-01-16T18:29:29.450Z,30.76
2024-01-16T18:32:01.939Z,31.25
2024-01-16T18:34:28.352Z,30.55
2024-01-16T18:36:55.176Z,30.62
2024-01-16T18:39:22.826Z,30.87
2024-01-16T18:41:49.602Z,30.84
2024-01-16T18:44:16.345Z,30.71
2024-01-16T18:46:43.716Z,30.79
2024-01-16T18:49:10.346Z,30.87
2024-01-16T18:51:38.083Z,30.73
2024-01-16T18:54:05.445Z,30.50
2024-01-16T18:56:31.947Z,30.53
2024-01-16T18:58:58.294Z,30.64
2024-01-16T19:01:24.737Z,30.71
2024-01-16T19:03:52.579Z,30.82
2024-01-16T19:06:19.187Z,30.81
2024-01-16T19:08:47.070Z,30.43
2024-01-16T19:11:13.483Z,30.36
2024-01-16T19:13:43.916Z,30.27
2024-01-16T19:16:10.655Z,30.30
2024-01-16T19:18:37.325Z,30.88
2024-01-16T19:21:06.642Z,30.74
2024-01-16T19:23:33.330Z,30.63
2024-01-16T19:25:59.773Z,32.37
2024-01-16T19:28:29.440Z,33.10
2024-01-16T19:30:56.299Z,31.99
2024-01-16T19:33:22.846Z,31.87
2024-01-16T19:35:49.906Z,32.26
2024-01-16T19:38:16.372Z,32.50
2024-01-16T19:40:43.065Z,32.54
2024-01-16T19:43:09.513Z,32.89
2024-01-16T19:45:36.197Z,32.68
2024-01-16T19:48:02.789Z,32.31
2024-01-16T19:50:29.827Z,32.59
2024-01-16T19:52:58.156Z,32.58
2024-01-16T19:55:25.141Z,32.49
2024-01-16T19:57:51.971Z,32.21
2024-01-16T20:00:18.398Z,32.24
2024-01-16T20:02:44.924Z,32.28
2024-01-16T20:05:14.206Z,32.42
2024-01-16T20:07:40.597Z,33.01
2024-01-16T20:10:08.402Z,32.42
2024-01-16T20:12:39.975Z,32.50
2024-01-16T20:15:09.323Z,32.31
2024-01-16T20:17:36.038Z,32.34
2024-01-16T20:20:02.635Z,31.91
2024-01-16T20:22:30.768Z,32.40
2024-01-16T20:24:58.382Z,32.08
2024-01-16T20:27:24.761Z,31.96
2024-01-16T20:29:51.168Z,32.13
2024-01-16T20:32:17.550Z,32.00
2024-01-16T20:34:45.655Z,32.01
2024-01-16T20:37:14.583Z,31.56
2024-01-16T20:39:41.310Z,31.87
2024-01-16T20:42:10.701Z,31.68
2024-01-16T20:44:37.099Z,31.67
2024-01-16T20:47:03.573Z,32.16
2024-01-16T20:49:30.061Z,31.95
2024-01-16T20:51:58.361Z,32.29
2024-01-16T20:54:24.953Z,31.60
2024-01-16T20:56:51.420Z,32.17
2024-01-16T20:59:17.853Z,31.76
2024-01-16T21:01:44.366Z,31.29
2024-01-16T21:04:10.779Z,31.31
2024-01-16T21:06:37.821Z,31.54
2024-01-16T21:09:04.894Z,31.43
2024-01-16T21:11:31.412Z,31.70
2024-01-16T21:13:57.806Z,31.68
2024-01-16T21:16:24.289Z,31.59
2024-01-16T21:18:51.065Z,31.58
2024-01-16T21:21:17.548Z,31.65
2024-01-16T21:23:44.893Z,31.58
2024-01-16T21:26:11.468Z,31.56
2024-01-16T21:28:37.967Z,31.68
2024-01-16T21:31:04.590Z,31.29
2024-01-16T21:33:31.809Z,31.87
2024-01-16T21:35:59.065Z,31.33
2024-01-16T21:38:25.999Z,31.38
2024-01-16T21:40:52.401Z,31.55
2024-01-16T21:43:18.775Z,31.57
2024-01-16T21:45:45.174Z,31.63
2024-01-16T21:48:11.703Z,31.18
2024-01-16T21:50:39.720Z,30.81
2024-01-16T21:53:06.235Z,31.23
2024-01-16T21:55:32.617Z,31.30
2024-01-16T21:57:58.991Z,31.25
2024-01-16T22:00:25.453Z,30.65
2024-01-16T22:02:58.577Z,31.25
2024-01-16T22:05:26.030Z,31.19
2024-01-16T22:07:52.438Z,31.03
2024-01-16T22:10:18.798Z,30.75
2024-01-16T22:12:45.181Z,31.13
2024-01-16T22:15:12.934Z,31.23
2024-01-16T22:17:39.688Z,30.80
2024-01-16T22:20:06.598Z,30.78
2024-01-16T22:22:33.095Z,30.26
2024-01-16T22:24:59.474Z,30.36
2024-01-16T22:27:25.879Z,30.42
2024-01-16T22:29:52.290Z,30.15
2024-01-16T22:32:19.545Z,30.17
2024-01-16T22:34:45.957Z,30.02
2024-01-16T22:37:13.482Z,30.33
2024-01-16T22:39:42.562Z,30.08
2024-01-16T22:42:10.670Z,30.28
2024-01-16T22:44:38.922Z,30.08
2024-01-16T22:47:06.711Z,29.90
2024-01-16T22:49:33.268Z,29.76
2024-01-16T22:51:59.730Z,29.78
2024-01-16T22:54:26.129Z,29.68
2024-01-16T22:56:52.626Z,29.65
2024-01-16T22:59:19.007Z,29.97
2024-01-16T23:01:48.576Z,29.53
2024-01-16T23:04:15.009Z,29.82
2024-01-16T23:06:42.356Z,29.73
2024-01-16T23:09:08.782Z,29.53
2024-01-16T23:11:35.256Z,29.54
2024-01-16T23:14:03.072Z,29.46
2024-01-16T23:16:29.456Z,29.70
2024-01-16T23:18:56.113Z,29.51
2024-01-16T23:21:24.900Z,29.42
2024-01-16T23:23:52.037Z,29.55
2024-01-16T23:26:18.441Z,29.39
2024-01-16T23:28:44.831Z,29.42
2024-01-16T23:31:12.863Z,29.39
2024-01-16T23:33:39.561Z,29.75
2024-01-16T23:36:06.297Z,29.55
2024-01-16T23:38:34.369Z,29.32
2024-01-16T23:41:01.607Z,29.56
2024-01-16T23:43:34.251Z,29.52
2024-01-16T23:46:01.491Z,29.62
2024-01-16T23:48:28.341Z,29.47
2024-01-16T23:50:54.932Z,29.34
2024-01-16T23:53:21.376Z,29.40
2024-01-16T23:55:50.112Z,29.32
2024-01-16T23:58:16.506Z,29.18
